Terminal Aerodrome Forecast
Issued by NWS Sioux Falls, SD

Home | Current Version | Previous Version | Text Only | Print | Product List | Glossary On
Versions: 1 2 3 4 5 6 7 8 9 10 11 12 13 14 15 16 17 18 19 20 21 22 23 24 25 26 27 28
000
FTUS43 KFSD 221100
TAFSUX
TAF
KSUX 221137Z 2212/2312 VRB03KT P6SM SKC
     FM221400 05005KT P6SM SCT200
     FM222100 09005KT P6SM SCT050 BKN150
     FM230300 12008KT 5SM TSRA OVC040CB=

USA.gov is the U.S. government's official web portal to all federal, state and local government web resources and services.